sensor_id;sensor_type;location;lat;lon;timestamp;pressure;altitude;pressure_sealevel;temperature;humidity
29383;BME280;16365;51.598;7.668;2022-11-15T00:00:56;100312.91;;;15.38;45.91
29383;BME280;16365;51.598;7.668;2022-11-15T00:03:24;100310.09;;;15.38;45.93
29383;BME280;16365;51.598;7.668;2022-11-15T00:05:51;100306.88;;;15.36;46.03
29383;BME280;16365;51.598;7.668;2022-11-15T00:08:19;100317.22;;;15.36;46.09
29383;BME280;16365;51.598;7.668;2022-11-15T00:10:55;100306.34;;;15.31;46.21
29383;BME280;16365;51.598;7.668;2022-11-15T00:13:22;100304.81;;;15.33;46.16
29383;BME280;16365;51.598;7.668;2022-11-15T00:15:49;100300.78;;;15.31;46.24
29383;BME280;16365;51.598;7.668;2022-11-15T00:18:16;100303.94;;;15.29;46.32
29383;BME280;16365;51.598;7.668;2022-11-15T00:20:43;100307.53;;;15.30;46.46
29383;BME280;16365;51.598;7.668;2022-11-15T00:23:09;100304.75;;;15.30;46.50
29383;BME280;16365;51.598;7.668;2022-11-15T00:25:35;100299.16;;;15.30;46.65
29383;BME280;16365;51.598;7.668;2022-11-15T00:28:03;100293.19;;;15.31;46.74
29383;BME280;16365;51.598;7.668;2022-11-15T00:30:30;100293.66;;;15.33;46.79
29383;BME280;16365;51.598;7.668;2022-11-15T00:33:01;100289.69;;;15.34;47.05
29383;BME280;16365;51.598;7.668;2022-11-15T00:35:28;100290.09;;;15.36;46.92
29383;BME280;16365;51.598;7.668;2022-11-15T00:37:55;100281.72;;;15.36;46.76
29383;BME280;16365;51.598;7.668;2022-11-15T00:40:21;100283.34;;;15.37;46.62
29383;BME280;16365;51.598;7.668;2022-11-15T00:42:48;100281.72;;;15.36;47.01
29383;BME280;16365;51.598;7.668;2022-11-15T00:45:16;100285.69;;;15.35;47.04
29383;BME280;16365;51.598;7.668;2022-11-15T00:47:45;100283.28;;;15.34;47.44
29383;BME280;16365;51.598;7.668;2022-11-15T00:50:13;100281.31;;;15.34;46.89
29383;BME280;16365;51.598;7.668;2022-11-15T00:52:41;100279.31;;;15.35;47.20
29383;BME280;16365;51.598;7.668;2022-11-15T00:55:13;100277.69;;;15.34;47.59
29383;BME280;16365;51.598;7.668;2022-11-15T00:57:40;100286.97;;;15.38;47.22
29383;BME280;16365;51.598;7.668;2022-11-15T01:00:07;100279.38;;;15.38;47.58
29383;BME280;16365;51.598;7.668;2022-11-15T01:02:34;100275.03;;;15.41;47.71
29383;BME280;16365;51.598;7.668;2022-11-15T01:05:00;100277.88;;;15.45;47.79
29383;BME280;16365;51.598;7.668;2022-11-15T01:07:27;100268.78;;;15.48;47.84
29383;BME280;16365;51.598;7.668;2022-11-15T01:09:56;100278.38;;;15.50;47.75
29383;BME280;16365;51.598;7.668;2022-11-15T01:12:22;100271.69;;;15.55;47.91
29383;BME280;16365;51.598;7.668;2022-11-15T01:14:49;100268.16;;;15.58;47.82
29383;BME280;16365;51.598;7.668;2022-11-15T01:17:16;100270.63;;;15.63;48.09
29383;BME280;16365;51.598;7.668;2022-11-15T01:19:44;100269.53;;;15.67;47.86
29383;BME280;16365;51.598;7.668;2022-11-15T01:22:10;100263.19;;;15.71;47.83
29383;BME280;16365;51.598;7.668;2022-11-15T01:24:37;100258.84;;;15.73;48.19
29383;BME280;16365;51.598;7.668;2022-11-15T01:27:03;100261.72;;;15.77;48.13
29383;BME280;16365;51.598;7.668;2022-11-15T01:29:30;100258.59;;;15.82;48.25
29383;BME280;16365;51.598;7.668;2022-11-15T01:31:56;100254.25;;;15.84;48.22
29383;BME280;16365;51.598;7.668;2022-11-15T01:34:22;100254.72;;;15.90;48.34
29383;BME280;16365;51.598;7.668;2022-11-15T01:36:49;100259.19;;;15.94;48.47
29383;BME280;16365;51.598;7.668;2022-11-15T01:39:15;100246.06;;;15.99;48.64
29383;BME280;16365;51.598;7.668;2022-11-15T01:41:43;100258.13;;;16.03;48.82
29383;BME280;16365;51.598;7.668;2022-11-15T01:44:38;100254.59;;;16.06;49.71
29383;BME280;16365;51.598;7.668;2022-11-15T01:47:10;100258.72;;;16.15;49.32
29383;BME280;16365;51.598;7.668;2022-11-15T01:49:39;100246.03;;;16.22;49.08
29383;BME280;16365;51.598;7.668;2022-11-15T01:52:11;100249.28;;;16.27;49.43
29383;BME280;16365;51.598;7.668;2022-11-15T01:54:39;100248.22;;;16.35;49.36
29383;BME280;16365;51.598;7.668;2022-11-15T01:57:09;100242.34;;;16.44;50.39
29383;BME280;16365;51.598;7.668;2022-11-15T01:59:38;100247.28;;;16.54;50.41
29383;BME280;16365;51.598;7.668;2022-11-15T02:02:06;100244.22;;;16.66;50.35
29383;BME280;16365;51.598;7.668;2022-11-15T02:04:37;100236.78;;;16.78;50.63
29383;BME280;16365;51.598;7.668;2022-11-15T02:07:08;100240.16;;;16.90;50.78
29383;BME280;16365;51.598;7.668;2022-11-15T02:09:36;100235.09;;;17.03;49.96
29383;BME280;16365;51.598;7.668;2022-11-15T02:12:04;100236.00;;;17.14;50.16
29383;BME280;16365;51.598;7.668;2022-11-15T02:14:31;100236.09;;;17.25;49.76
29383;BME280;16365;51.598;7.668;2022-11-15T02:25:25;100223.56;;;17.53;49.81
29383;BME280;16365;51.598;7.668;2022-11-15T02:28:10;100218.00;;;17.60;49.84
29383;BME280;16365;51.598;7.668;2022-11-15T02:30:58;100218.84;;;17.64;49.65
29383;BME280;16365;51.598;7.668;2022-11-15T02:36:12;100231.00;;;17.75;49.70
29383;BME280;16365;51.598;7.668;2022-11-15T02:38:56;100220.59;;;17.79;49.08
29383;BME280;16365;51.598;7.668;2022-11-15T02:41:31;100225.44;;;17.82;49.46
29383;BME280;16365;51.598;7.668;2022-11-15T02:44:14;100213.00;;;17.83;49.57
29383;BME280;16365;51.598;7.668;2022-11-15T02:46:52;100209.84;;;17.88;49.43
29383;BME280;16365;51.598;7.668;2022-11-15T02:49:57;100208.66;;;17.89;49.44
29383;BME280;16365;51.598;7.668;2022-11-15T02:52:24;100211.50;;;17.96;49.03
29383;BME280;16365;51.598;7.668;2022-11-15T02:54:54;100216.72;;;17.98;49.09
29383;BME280;16365;51.598;7.668;2022-11-15T02:58:10;100213.50;;;17.96;49.10
29383;BME280;16365;51.598;7.668;2022-11-15T03:01:08;100205.13;;;18.00;49.57
29383;BME280;16365;51.598;7.668;2022-11-15T03:06:53;100213.53;;;18.03;49.45
29383;BME280;16365;51.598;7.668;2022-11-15T03:12:11;100209.56;;;18.04;49.18
29383;BME280;16365;51.598;7.668;2022-11-15T03:14:57;100209.56;;;18.04;48.90
29383;BME280;16365;51.598;7.668;2022-11-15T03:17:29;100218.00;;;18.08;48.74
29383;BME280;16365;51.598;7.668;2022-11-15T03:19:58;100207.16;;;18.06;48.81
29383;BME280;16365;51.598;7.668;2022-11-15T03:22:27;100207.16;;;18.06;49.07
29383;BME280;16365;51.598;7.668;2022-11-15T03:25:02;100211.56;;;18.04;48.73
29383;BME280;16365;51.598;7.668;2022-11-15T03:27:38;100214.38;;;18.04;48.72
29383;BME280;16365;51.598;7.668;2022-11-15T03:30:07;100213.19;;;18.05;48.55
29383;BME280;16365;51.598;7.668;2022-11-15T03:32:39;100210.75;;;18.03;48.71
29383;BME280;16365;51.598;7.668;2022-11-15T03:35:11;100215.16;;;18.01;49.12
29383;BME280;16365;51.598;7.668;2022-11-15T03:40:33;100209.09;;;17.98;48.99
29383;BME280;16365;51.598;7.668;2022-11-15T03:46:16;100209.91;;;17.95;49.25
29383;BME280;16365;51.598;7.668;2022-11-15T03:48:50;100213.13;;;17.97;49.19
29383;BME280;16365;51.598;7.668;2022-11-15T03:51:18;100208.31;;;17.98;48.58
29383;BME280;16365;51.598;7.668;2022-11-15T03:53:45;100211.13;;;17.98;48.48
29383;BME280;16365;51.598;7.668;2022-11-15T03:56:12;100201.09;;;17.97;48.59
29383;BME280;16365;51.598;7.668;2022-11-15T03:58:38;100201.50;;;17.95;48.87
29383;BME280;16365;51.598;7.668;2022-11-15T04:01:05;100201.50;;;17.95;49.10
29383;BME280;16365;51.598;7.668;2022-11-15T04:03:31;100191.06;;;17.96;49.15
29383;BME280;16365;51.598;7.668;2022-11-15T04:05:58;100201.09;;;17.97;48.88
29383;BME280;16365;51.598;7.668;2022-11-15T04:08:24;100187.88;;;17.97;48.76
29383;BME280;16365;51.598;7.668;2022-11-15T04:10:51;100179.47;;;17.97;48.83
29383;BME280;16365;51.598;7.668;2022-11-15T04:13:17;100179.47;;;17.97;49.31
29383;BME280;16365;51.598;7.668;2022-11-15T04:15:43;100177.44;;;17.98;48.80
29383;BME280;16365;51.598;7.668;2022-11-15T04:18:10;100175.06;;;18.00;49.19
29383;BME280;16365;51.598;7.668;2022-11-15T04:20:36;100175.06;;;18.00;49.18
29383;BME280;16365;51.598;7.668;2022-11-15T04:23:22;100175.09;;;18.04;49.35
29383;BME280;16365;51.598;7.668;2022-11-15T04:26:16;100175.91;;;18.04;49.94
29383;BME280;16365;51.598;7.668;2022-11-15T04:28:44;100172.72;;;18.09;49.34
29383;BME280;16365;51.598;7.668;2022-11-15T04:31:29;100171.94;;;18.12;49.21
29383;BME280;16365;51.598;7.668;2022-11-15T04:33:55;100172.34;;;18.14;49.52
29383;BME280;16365;51.598;7.668;2022-11-15T04:36:22;100172.75;;;18.16;49.12
29383;BME280;16365;51.598;7.668;2022-11-15T04:39:07;100175.59;;;18.20;49.54
29383;BME280;16365;51.598;7.668;2022-11-15T04:41:34;100177.63;;;18.23;49.71
29383;BME280;16365;51.598;7.668;2022-11-15T04:44:01;100178.00;;;18.25;49.23
29383;BME280;16365;51.598;7.668;2022-11-15T04:46:27;100179.25;;;18.28;49.59
29383;BME280;16365;51.598;7.668;2022-11-15T04:48:54;100180.44;;;18.30;49.48
29383;BME280;16365;51.598;7.668;2022-11-15T04:51:24;100182.47;;;18.33;49.49
29383;BME280;16365;51.598;7.668;2022-11-15T04:53:51;100175.66;;;18.34;49.32
29383;BME280;16365;51.598;7.668;2022-11-15T04:56:17;100173.25;;;18.36;49.24
29383;BME280;16365;51.598;7.668;2022-11-15T04:58:43;100175.28;;;18.39;49.50
29383;BME280;16365;51.598;7.668;2022-11-15T05:01:13;100184.53;;;18.43;49.58
29383;BME280;16365;51.598;7.668;2022-11-15T05:03:41;100181.31;;;18.45;49.52
29383;BME280;16365;51.598;7.668;2022-11-15T05:06:26;100167.69;;;18.47;49.17
29383;BME280;16365;51.598;7.668;2022-11-15T05:08:53;100176.13;;;18.50;49.19
29383;BME280;16365;51.598;7.668;2022-11-15T05:11:20;100168.91;;;18.49;49.15
29383;BME280;16365;51.598;7.668;2022-11-15T05:13:47;100172.09;;;18.52;48.91
29383;BME280;16365;51.598;7.668;2022-11-15T05:16:13;100167.31;;;18.52;49.32
29383;BME280;16365;51.598;7.668;2022-11-15T05:18:40;100171.31;;;18.55;49.01
29383;BME280;16365;51.598;7.668;2022-11-15T05:21:09;100176.13;;;18.54;49.30
29383;BME280;16365;51.598;7.668;2022-11-15T05:23:36;100169.31;;;18.55;49.05
29383;BME280;16365;51.598;7.668;2022-11-15T05:26:04;100168.09;;;18.56;49.03
29383;BME280;16365;51.598;7.668;2022-11-15T05:28:34;100169.75;;;18.57;48.98
29383;BME280;16365;51.598;7.668;2022-11-15T05:31:04;100172.16;;;18.59;48.89
29383;BME280;16365;51.598;7.668;2022-11-15T05:33:31;100161.31;;;18.61;49.16
29383;BME280;16365;51.598;7.668;2022-11-15T05:38:45;100172.97;;;18.63;48.96
29383;BME280;16365;51.598;7.668;2022-11-15T05:41:13;100168.16;;;18.67;49.04
29383;BME280;16365;51.598;7.668;2022-11-15T05:43:41;100166.59;;;18.69;48.77
29383;BME280;16365;51.598;7.668;2022-11-15T05:46:08;100164.59;;;18.70;48.79
29383;BME280;16365;51.598;7.668;2022-11-15T05:48:36;100169.81;;;18.75;48.55
29383;BME280;16365;51.598;7.668;2022-11-15T05:51:04;100156.97;;;18.74;48.69
29383;BME280;16365;51.598;7.668;2022-11-15T05:53:31;100157.38;;;18.72;48.48
29383;BME280;16365;51.598;7.668;2022-11-15T05:55:58;100151.75;;;18.72;48.80
29383;BME280;16365;51.598;7.668;2022-11-15T05:58:25;100153.78;;;18.72;48.86
29383;BME280;16365;51.598;7.668;2022-11-15T06:00:51;100159.38;;;18.72;48.71
29383;BME280;16365;51.598;7.668;2022-11-15T06:03:18;100154.97;;;18.74;48.91
29383;BME280;16365;51.598;7.668;2022-11-15T06:05:44;100156.97;;;18.74;49.06
29383;BME280;16365;51.598;7.668;2022-11-15T06:08:10;100163.03;;;18.76;48.73
29383;BME280;16365;51.598;7.668;2022-11-15T06:10:37;100155.41;;;18.77;48.68
29383;BME280;16365;51.598;7.668;2022-11-15T06:13:04;100155.41;;;18.77;48.69
29383;BME280;16365;51.598;7.668;2022-11-15T06:15:32;100155.41;;;18.77;48.70
29383;BME280;16365;51.598;7.668;2022-11-15T06:17:58;100158.56;;;18.75;48.60
29383;BME280;16365;51.598;7.668;2022-11-15T06:20:26;100161.00;;;18.77;48.76
29383;BME280;16365;51.598;7.668;2022-11-15T06:23:01;100167.00;;;18.75;48.87
29383;BME280;16365;51.598;7.668;2022-11-15T06:25:29;100168.22;;;18.78;48.71
29383;BME280;16365;51.598;7.668;2022-11-15T06:27:57;100176.66;;;18.78;48.92
29383;BME280;16365;51.598;7.668;2022-11-15T06:30:25;100171.84;;;18.78;48.80
29383;BME280;16365;51.598;7.668;2022-11-15T06:32:58;100178.25;;;18.75;48.79
29383;BME280;16365;51.598;7.668;2022-11-15T06:35:25;100182.69;;;18.76;48.56
29383;BME280;16365;51.598;7.668;2022-11-15T06:37:51;100182.25;;;18.74;48.73
29383;BME280;16365;51.598;7.668;2022-11-15T06:40:18;100181.44;;;18.73;48.48
29383;BME280;16365;51.598;7.668;2022-11-15T06:42:44;100184.66;;;18.72;48.73
29383;BME280;16365;51.598;7.668;2022-11-15T06:45:10;100179.84;;;18.69;48.58
29383;BME280;16365;51.598;7.668;2022-11-15T06:47:44;100188.59;;;18.64;49.27
29383;BME280;16365;51.598;7.668;2022-11-15T06:50:11;100193.03;;;18.65;48.99
29383;BME280;16365;51.598;7.668;2022-11-15T06:52:38;100190.63;;;18.63;48.71
29383;BME280;16365;51.598;7.668;2022-11-15T06:55:04;100199.84;;;18.64;48.89
29383;BME280;16365;51.598;7.668;2022-11-15T06:57:31;100194.63;;;18.62;49.14
29383;BME280;16365;51.598;7.668;2022-11-15T06:59:58;100201.03;;;18.63;48.89
29383;BME280;16365;51.598;7.668;2022-11-15T07:02:25;100203.84;;;18.63;49.15
29383;BME280;16365;51.598;7.668;2022-11-15T07:04:51;100206.66;;;18.63;49.02
29383;BME280;16365;51.598;7.668;2022-11-15T07:07:18;100214.69;;;18.64;49.01
29383;BME280;16365;51.598;7.668;2022-11-15T07:09:44;100207.06;;;18.65;49.19
29383;BME280;16365;51.598;7.668;2022-11-15T07:12:11;100203.03;;;18.66;49.11
29383;BME280;16365;51.598;7.668;2022-11-15T07:14:37;100207.47;;;18.67;48.70
29383;BME280;16365;51.598;7.668;2022-11-15T07:17:04;100212.72;;;18.68;49.00
29383;BME280;16365;51.598;7.668;2022-11-15T07:19:31;100210.75;;;18.72;48.99
29383;BME280;16365;51.598;7.668;2022-11-15T07:21:58;100211.94;;;18.75;48.82
29383;BME280;16365;51.598;7.668;2022-11-15T07:24:24;100212.75;;;18.75;48.98
29383;BME280;16365;51.598;7.668;2022-11-15T07:26:50;100213.97;;;18.78;49.22
29383;BME280;16365;51.598;7.668;2022-11-15T07:29:17;100219.59;;;18.82;48.97
29383;BME280;16365;51.598;7.668;2022-11-15T07:31:43;100222.81;;;18.84;48.92
29383;BME280;16365;51.598;7.668;2022-11-15T07:34:11;100221.22;;;18.86;48.71
29383;BME280;16365;51.598;7.668;2022-11-15T07:36:37;100228.84;;;18.89;48.62
29383;BME280;16365;51.598;7.668;2022-11-15T07:39:03;100230.88;;;18.92;48.51
29383;BME280;16365;51.598;7.668;2022-11-15T07:41:30;100234.06;;;18.94;48.45
29383;BME280;16365;51.598;7.668;2022-11-15T07:43:57;100238.50;;;18.99;48.53
29383;BME280;16365;51.598;7.668;2022-11-15T07:46:23;100238.94;;;19.01;48.50
29383;BME280;16365;51.598;7.668;2022-11-15T07:48:50;100244.53;;;19.05;48.10
29383;BME280;16365;51.598;7.668;2022-11-15T07:51:16;100240.13;;;19.07;47.81
29383;BME280;16365;51.598;7.668;2022-11-15T07:53:43;100234.53;;;19.11;47.91
29383;BME280;16365;51.598;7.668;2022-11-15T07:56:10;100231.31;;;19.12;47.63
29383;BME280;16365;51.598;7.668;2022-11-15T07:58:37;100234.94;;;19.13;47.53
29383;BME280;16365;51.598;7.668;2022-11-15T08:01:07;100236.13;;;19.12;47.42
29383;BME280;16365;51.598;7.668;2022-11-15T08:03:35;100233.31;;;19.12;47.24
29383;BME280;16365;51.598;7.668;2022-11-15T08:06:03;100234.91;;;19.09;47.15
29383;BME280;16365;51.598;7.668;2022-11-15T08:08:30;100236.53;;;19.07;46.99
29383;BME280;16365;51.598;7.668;2022-11-15T08:11:00;100234.91;;;19.02;47.02
29383;BME280;16365;51.598;7.668;2022-11-15T08:13:26;100243.75;;;19.00;47.06
29383;BME280;16365;51.598;7.668;2022-11-15T08:15:58;100243.72;;;18.97;47.02
29383;BME280;16365;51.598;7.668;2022-11-15T08:18:25;100234.50;;;18.96;46.72
29383;BME280;16365;51.598;7.668;2022-11-15T08:20:51;100231.25;;;18.94;47.19
29383;BME280;16365;51.598;7.668;2022-11-15T08:23:18;100236.47;;;18.92;46.95
29383;BME280;16365;51.598;7.668;2022-11-15T08:25:44;100235.69;;;18.92;46.99
29383;BME280;16365;51.598;7.668;2022-11-15T08:28:11;100233.69;;;18.92;46.75
29383;BME280;16365;51.598;7.668;2022-11-15T08:30:39;100232.06;;;18.91;46.50
29383;BME280;16365;51.598;7.668;2022-11-15T08:33:12;100244.09;;;18.92;46.46
29383;BME280;16365;51.598;7.668;2022-11-15T08:35:42;100230.47;;;18.94;46.46
29383;BME280;16365;51.598;7.668;2022-11-15T08:38:09;100237.31;;;18.96;46.47
29383;BME280;16365;51.598;7.668;2022-11-15T08:40:36;100238.50;;;18.99;46.72
29383;BME280;16365;51.598;7.668;2022-11-15T08:43:03;100230.50;;;19.01;46.72
29383;BME280;16365;51.598;7.668;2022-11-15T08:45:34;100228.09;;;19.03;46.32
29383;BME280;16365;51.598;7.668;2022-11-15T08:48:02;100228.09;;;19.07;46.40
29383;BME280;16365;51.598;7.668;2022-11-15T08:50:30;100229.72;;;19.11;46.32
29383;BME280;16365;51.598;7.668;2022-11-15T08:52:56;100226.09;;;19.14;46.26
29383;BME280;16365;51.598;7.668;2022-11-15T08:55:23;100227.72;;;19.15;45.90
29383;BME280;16365;51.598;7.668;2022-11-15T08:57:50;100224.50;;;19.17;45.82
29383;BME280;16365;51.598;7.668;2022-11-15T09:00:17;100234.13;;;19.19;45.68
29383;BME280;16365;51.598;7.668;2022-11-15T09:02:43;100223.31;;;19.21;45.61
29383;BME280;16365;51.598;7.668;2022-11-15T09:05:10;100221.31;;;19.25;45.51
29383;BME280;16365;51.598;7.668;2022-11-15T09:07:36;100219.69;;;19.28;45.50
29383;BME280;16365;51.598;7.668;2022-11-15T09:10:03;100219.72;;;19.32;45.19
29383;BME280;16365;51.598;7.668;2022-11-15T09:12:30;100213.31;;;19.35;45.32
29383;BME280;16365;51.598;7.668;2022-11-15T09:14:56;100219.69;;;19.39;45.25
29383;BME280;16365;51.598;7.668;2022-11-15T09:17:24;100211.28;;;19.42;45.10
29383;BME280;16365;51.598;7.668;2022-11-15T09:19:50;100218.94;;;19.45;44.84
29383;BME280;16365;51.598;7.668;2022-11-15T09:22:17;100212.47;;;19.48;44.60
29383;BME280;16365;51.598;7.668;2022-11-15T09:24:44;100213.69;;;19.51;44.69
29383;BME280;16365;51.598;7.668;2022-11-15T09:27:10;100207.28;;;19.54;44.43
29383;BME280;16365;51.598;7.668;2022-11-15T09:29:37;100216.53;;;19.58;44.67
29383;BME280;16365;51.598;7.668;2022-11-15T09:32:04;100214.94;;;19.61;44.36
29383;BME280;16365;51.598;7.668;2022-11-15T09:34:30;100204.91;;;19.63;44.38
29383;BME280;16365;51.598;7.668;2022-11-15T09:36:57;100210.50;;;19.67;44.34
29383;BME280;16365;51.598;7.668;2022-11-15T09:39:23;100212.94;;;19.68;43.97
29383;BME280;16365;51.598;7.668;2022-11-15T09:42:20;100200.88;;;19.68;43.57
29383;BME280;16365;51.598;7.668;2022-11-15T09:44:59;100198.06;;;19.71;43.30
29383;BME280;16365;51.598;7.668;2022-11-15T09:50:22;100198.44;;;19.77;44.21
29383;BME280;16365;51.598;7.668;2022-11-15T09:52:54;100195.25;;;19.79;43.26
29383;BME280;16365;51.598;7.668;2022-11-15T09:55:32;100196.47;;;19.77;43.06
29383;BME280;16365;51.598;7.668;2022-11-15T09:58:10;100188.81;;;19.78;42.70
29383;BME280;16365;51.598;7.668;2022-11-15T10:00:44;100197.66;;;19.80;42.95
29383;BME280;16365;51.598;7.668;2022-11-15T10:03:17;100193.25;;;19.83;42.79
29383;BME280;16365;51.598;7.668;2022-11-15T10:05:48;100198.47;;;19.84;42.75
29383;BME280;16365;51.598;7.668;2022-11-15T10:08:45;100198.47;;;19.84;42.20
29383;BME280;16365;51.598;7.668;2022-11-15T10:11:20;100193.63;;;19.88;42.16
29383;BME280;16365;51.598;7.668;2022-11-15T10:14:09;100200.06;;;19.92;42.12
29383;BME280;16365;51.598;7.668;2022-11-15T10:17:06;100187.97;;;19.92;42.03
29383;BME280;16365;51.598;7.668;2022-11-15T10:19:54;100180.34;;;19.96;41.92
29383;BME280;16365;51.598;7.668;2022-11-15T10:22:39;100175.50;;;20.00;41.85
29383;BME280;16365;51.598;7.668;2022-11-15T10:27:54;100178.72;;;20.09;42.06
29383;BME280;16365;51.598;7.668;2022-11-15T10:30:22;100169.84;;;20.14;42.08
29383;BME280;16365;51.598;7.668;2022-11-15T10:32:48;100174.25;;;20.15;41.89
29383;BME280;16365;51.598;7.668;2022-11-15T10:35:28;100165.03;;;20.15;40.96
29383;BME280;16365;51.598;7.668;2022-11-15T10:38:09;100160.59;;;20.17;41.31
29383;BME280;16365;51.598;7.668;2022-11-15T10:40:37;100157.38;;;20.22;41.33
29383;BME280;16365;51.598;7.668;2022-11-15T10:45:37;100144.88;;;20.27;41.09
29383;BME280;16365;51.598;7.668;2022-11-15T10:50:42;100143.28;;;20.26;40.95
29383;BME280;16365;51.598;7.668;2022-11-15T10:55:49;100119.13;;;20.25;40.77
29383;BME280;16365;51.598;7.668;2022-11-15T10:58:38;100115.53;;;20.24;40.45
29383;BME280;16365;51.598;7.668;2022-11-15T11:01:16;100114.28;;;20.29;40.45
29383;BME280;16365;51.598;7.668;2022-11-15T11:04:04;100111.06;;;20.31;40.60
29383;BME280;16365;51.598;7.668;2022-11-15T11:06:55;100109.84;;;20.35;40.45
29383;BME280;16365;51.598;7.668;2022-11-15T11:09:33;100117.84;;;20.40;40.11
29383;BME280;16365;51.598;7.668;2022-11-15T11:12:01;100110.22;;;20.48;40.05
29383;BME280;16365;51.598;7.668;2022-11-15T11:14:29;100107.41;;;20.48;39.63
29383;BME280;16365;51.598;7.668;2022-11-15T11:17:23;100098.53;;;20.46;39.35
29383;BME280;16365;51.598;7.668;2022-11-15T11:20:32;100099.72;;;20.45;39.83
29383;BME280;16365;51.598;7.668;2022-11-15T11:28:43;100096.13;;;20.44;39.37
29383;BME280;16365;51.598;7.668;2022-11-15T11:31:39;100087.66;;;20.44;39.84
29383;BME280;16365;51.598;7.668;2022-11-15T11:37:00;100082.06;;;20.48;39.27
29383;BME280;16365;51.598;7.668;2022-11-15T11:39:56;100080.84;;;20.49;39.29
29383;BME280;16365;51.598;7.668;2022-11-15T11:42:46;100074.00;;;20.50;38.40
29383;BME280;16365;51.598;7.668;2022-11-15T11:47:47;100065.53;;;20.53;38.68
29383;BME280;16365;51.598;7.668;2022-11-15T11:50:19;100060.69;;;20.58;38.83
29383;BME280;16365;51.598;7.668;2022-11-15T11:55:39;100054.59;;;20.63;38.12
29383;BME280;16365;51.598;7.668;2022-11-15T11:58:22;100056.19;;;20.67;38.04
29383;BME280;16365;51.598;7.668;2022-11-15T12:00:56;100044.47;;;20.72;38.36
29383;BME280;16365;51.598;7.668;2022-11-15T12:06:19;100050.06;;;20.79;37.90
29383;BME280;16365;51.598;7.668;2022-11-15T12:09:02;100039.19;;;20.82;37.42
29383;BME280;16365;51.598;7.668;2022-11-15T12:11:59;100035.94;;;20.83;37.26
29383;BME280;16365;51.598;7.668;2022-11-15T12:14:46;100034.31;;;20.86;37.25
29383;BME280;16365;51.598;7.668;2022-11-15T12:17:16;100025.44;;;20.91;37.39
29383;BME280;16365;51.598;7.668;2022-11-15T12:19:47;100018.56;;;20.92;37.58
29383;BME280;16365;51.598;7.668;2022-11-15T12:22:20;100025.44;;;20.91;36.49
29383;BME280;16365;51.598;7.668;2022-11-15T12:24:53;100017.78;;;20.91;36.55
29383;BME280;16365;51.598;7.668;2022-11-15T12:29:59;100012.47;;;20.97;36.35
29383;BME280;16365;51.598;7.668;2022-11-15T12:32:36;100010.09;;;20.95;35.25
29383;BME280;16365;51.598;7.668;2022-11-15T12:35:23;100016.91;;;20.98;35.81
29383;BME280;16365;51.598;7.668;2022-11-15T12:37:54;100013.25;;;21.01;35.00
29383;BME280;16365;51.598;7.668;2022-11-15T12:40:28;100022.09;;;21.03;35.65
29383;BME280;16365;51.598;7.668;2022-11-15T12:43:32;100006.81;;;21.00;34.43
29383;BME280;16365;51.598;7.668;2022-11-15T12:45:53;100003.19;;;21.03;35.40
29383;BME280;16365;51.598;7.668;2022-11-15T12:51:06;100001.56;;;21.02;34.86
29383;BME280;16365;51.598;7.668;2022-11-15T12:53:33;100005.16;;;21.03;34.83
29383;BME280;16365;51.598;7.668;2022-11-15T12:58:54;99992.75;;;20.97;34.71
29383;BME280;16365;51.598;7.668;2022-11-15T13:14:53;99967.03;;;20.95;34.03
29383;BME280;16365;51.598;7.668;2022-11-15T13:22:19;99963.81;;;20.93;34.53
29383;BME280;16365;51.598;7.668;2022-11-15T13:25:15;99955.00;;;20.87;34.05
29383;BME280;16365;51.598;7.668;2022-11-15T13:27:50;99957.03;;;20.87;34.35
29383;BME280;16365;51.598;7.668;2022-11-15T13:30:24;99949.38;;;20.84;34.33
29383;BME280;16365;51.598;7.668;2022-11-15T13:32:51;99936.53;;;20.83;34.59
29383;BME280;16365;51.598;7.668;2022-11-15T13:35:27;99943.00;;;20.79;34.33
29383;BME280;16365;51.598;7.668;2022-11-15T13:37:55;99931.31;;;20.81;34.88
29383;BME280;16365;51.598;7.668;2022-11-15T13:40:26;99938.19;;;20.80;34.81
29383;BME280;16365;51.598;7.668;2022-11-15T13:42:56;99936.56;;;20.79;34.77
29383;BME280;16365;51.598;7.668;2022-11-15T13:45:23;99930.13;;;20.78;35.28
29383;BME280;16365;51.598;7.668;2022-11-15T13:47:55;99937.78;;;20.78;35.04
29383;BME280;16365;51.598;7.668;2022-11-15T13:50:33;99927.75;;;20.73;34.62
29383;BME280;16365;51.598;7.668;2022-11-15T13:53:03;99921.31;;;20.76;34.83
29383;BME280;16365;51.598;7.668;2022-11-15T13:55:31;99924.13;;;20.73;34.79
29383;BME280;16365;51.598;7.668;2022-11-15T13:58:03;99914.53;;;20.70;34.71
29383;BME280;16365;51.598;7.668;2022-11-15T14:00:40;99914.97;;;20.65;34.70
29383;BME280;16365;51.598;7.668;2022-11-15T14:03:17;99912.97;;;20.62;34.69
29383;BME280;16365;51.598;7.668;2022-11-15T14:08:33;99908.97;;;20.60;35.25
29383;BME280;16365;51.598;7.668;2022-11-15T14:11:26;99906.22;;;20.52;35.34
29383;BME280;16365;51.598;7.668;2022-11-15T14:14:23;99896.56;;;20.50;35.48
29383;BME280;16365;51.598;7.668;2022-11-15T14:16:52;99897.78;;;20.49;35.28
29383;BME280;16365;51.598;7.668;2022-11-15T14:24:34;99898.22;;;20.40;35.67
29383;BME280;16365;51.598;7.668;2022-11-15T14:27:26;99893.09;;;20.32;35.63
29383;BME280;16365;51.598;7.668;2022-11-15T14:29:53;99897.94;;;20.31;35.82
29383;BME280;16365;51.598;7.668;2022-11-15T14:32:23;99888.31;;;20.25;35.84
29383;BME280;16365;51.598;7.668;2022-11-15T14:34:58;99873.09;;;20.19;35.71
29383;BME280;16365;51.598;7.668;2022-11-15T14:37:30;99883.16;;;20.16;36.02
29383;BME280;16365;51.598;7.668;2022-11-15T14:39:59;99876.34;;;20.14;36.25
29383;BME280;16365;51.598;7.668;2022-11-15T14:42:25;99869.13;;;20.09;36.46